createdAt,value
2022-08-03T00:01:40.515Z,25.79
2022-08-03T00:06:43.003Z,25.64
2022-08-03T00:11:45.456Z,25.61
2022-08-03T00:16:47.904Z,25.81
2022-08-03T00:21:50.350Z,25.69
2022-08-03T00:26:53.040Z,25.54
2022-08-03T00:32:00.330Z,25.34
2022-08-03T00:37:03.117Z,25.44
2022-08-03T00:42:06.954Z,25.64
2022-08-03T00:47:10.371Z,25.55
2022-08-03T00:52:15.413Z,25.38
2022-08-03T00:57:17.831Z,25.33
2022-08-03T01:02:20.303Z,25.23
2022-08-03T01:07:44.104Z,25.36
2022-08-03T01:14:00.947Z,25.62
2022-08-03T01:19:05.300Z,25.56
2022-08-03T01:24:23.253Z,25.22
2022-08-03T01:29:43.526Z,25.10
2022-08-03T01:35:02.369Z,24.95
2022-08-03T01:40:08.079Z,25.03
2022-08-03T01:45:13.557Z,24.87
2022-08-03T01:50:19.148Z,25.04
2022-08-03T01:55:25.136Z,25.30
2022-08-03T02:00:28.799Z,25.13
2022-08-03T02:05:34.030Z,24.95
2022-08-03T02:10:37.746Z,24.63
2022-08-03T02:15:41.398Z,24.79
2022-08-03T02:20:46.431Z,24.60
2022-08-03T02:25:57.775Z,24.84
2022-08-03T02:31:11.715Z,24.84
2022-08-03T02:36:16.902Z,24.53
2022-08-03T02:41:29.584Z,24.52
2022-08-03T02:46:36.101Z,24.61
2022-08-03T02:51:40.280Z,24.83
2022-08-03T02:56:45.274Z,24.74
2022-08-03T03:01:48.553Z,24.42
2022-08-03T03:06:52.536Z,24.49
2022-08-03T03:11:57.692Z,24.71
2022-08-03T03:17:01.784Z,24.45
2022-08-03T03:22:07.195Z,24.42
2022-08-03T03:27:10.285Z,24.05
2022-08-03T03:32:19.846Z,24.17
2022-08-03T03:37:22.665Z,24.23
2022-08-03T03:42:26.203Z,24.54
2022-08-03T03:47:32.712Z,24.39
2022-08-03T03:52:36.565Z,24.25
2022-08-03T03:57:39.019Z,24.43
2022-08-03T04:02:41.871Z,24.59
2022-08-03T04:08:31.045Z,24.74
2022-08-03T04:13:38.572Z,24.26
2022-08-03T04:18:44.856Z,24.45
2022-08-03T04:23:51.415Z,24.04
2022-08-03T04:28:55.347Z,23.84
2022-08-03T04:33:59.014Z,23.65
2022-08-03T04:39:08.628Z,23.50
2022-08-03T04:44:13.816Z,23.99
2022-08-03T04:49:16.958Z,24.48
2022-08-03T04:54:19.503Z,24.00
2022-08-03T04:59:21.946Z,23.10
2022-08-03T05:04:24.381Z,22.47
2022-08-03T05:09:52.247Z,22.13
2022-08-03T05:14:49.355Z,22.73
2022-08-03T05:19:51.976Z,23.24
2022-08-03T05:24:54.439Z,23.91
2022-08-03T05:29:57.110Z,24.35
2022-08-03T05:36:01.934Z,24.50
2022-08-03T05:40:56.793Z,24.49
2022-08-03T05:46:12.038Z,24.51
2022-08-03T05:51:15.559Z,24.57
2022-08-03T05:56:21.640Z,24.18
2022-08-03T06:01:24.206Z,24.61
2022-08-03T06:06:31.893Z,24.87
2022-08-03T06:11:34.687Z,25.06
2022-08-03T06:16:37.199Z,25.13
2022-08-03T06:21:39.877Z,25.49
2022-08-03T06:26:42.436Z,25.66
2022-08-03T06:31:44.834Z,25.93
2022-08-03T06:36:48.648Z,26.04
2022-08-03T06:41:51.538Z,26.32
2022-08-03T06:46:54.045Z,26.50
2022-08-03T06:52:05.293Z,26.76
2022-08-03T06:57:11.605Z,26.93
2022-08-03T07:02:18.296Z,27.25
2022-08-03T07:07:22.082Z,27.59
2022-08-03T07:12:24.834Z,27.74
2022-08-03T07:17:27.553Z,28.20
2022-08-03T07:22:30.059Z,28.47
2022-08-03T07:27:33.790Z,28.87
2022-08-03T07:32:36.384Z,28.98
2022-08-03T07:37:54.736Z,29.32
2022-08-03T07:42:58.411Z,29.69
2022-08-03T07:48:01.263Z,30.10
2022-08-03T07:53:03.666Z,30.40
2022-08-03T07:58:09.827Z,30.90
2022-08-03T08:03:13.314Z,30.83
2022-08-03T08:08:15.874Z,31.25
2022-08-03T08:13:18.370Z,31.63
2022-08-03T08:18:20.939Z,32.09
2022-08-03T08:23:42.700Z,32.47
2022-08-03T08:28:46.559Z,32.50
2022-08-03T08:34:03.565Z,32.75
2022-08-03T08:39:06.951Z,33.34
2022-08-03T08:44:10.306Z,33.68
2022-08-03T08:49:17.300Z,33.98
2022-08-03T08:54:22.705Z,33.07
2022-08-03T08:59:26.326Z,33.27
2022-08-03T09:04:31.488Z,33.32
2022-08-03T09:10:11.058Z,34.69
2022-08-03T09:15:15.120Z,35.50
2022-08-03T09:20:20.716Z,34.87
2022-08-03T09:25:37.707Z,35.50
2022-08-03T09:30:42.343Z,36.57
2022-08-03T09:35:55.285Z,36.89
2022-08-03T09:41:00.944Z,37.27
2022-08-03T09:46:05.295Z,37.67
2022-08-03T09:51:13.152Z,37.91
2022-08-03T09:56:47.613Z,37.07
2022-08-03T10:01:50.077Z,37.55
2022-08-03T10:07:06.221Z,38.70
2022-08-03T10:12:13.558Z,39.18
2022-08-03T10:17:16.734Z,39.01
2022-08-03T10:22:32.505Z,39.69
2022-08-03T10:27:40.740Z,40.38
2022-08-03T10:32:57.660Z,41.11
2022-08-03T10:38:03.289Z,40.29
2022-08-03T10:43:18.823Z,40.60
2022-08-03T10:48:22.193Z,40.64
2022-08-03T10:53:54.818Z,39.69
2022-08-03T10:58:58.251Z,41.59
2022-08-03T11:04:16.963Z,41.09
2022-08-03T11:09:19.805Z,42.27
2022-08-03T11:14:22.741Z,43.21
2022-08-03T11:19:57.520Z,42.80
2022-08-03T11:25:01.795Z,42.01
2022-08-03T11:30:29.208Z,43.37
2022-08-03T11:35:36.105Z,43.54
2022-08-03T11:40:47.422Z,43.72
2022-08-03T11:46:04.706Z,42.21
2022-08-03T11:51:18.753Z,43.41
2022-08-03T11:56:21.415Z,41.51
2022-08-03T12:01:24.877Z,42.81
2022-08-03T12:06:27.596Z,44.36
2022-08-03T12:11:30.737Z,44.10
2022-08-03T12:16:33.253Z,42.93
2022-08-03T12:21:45.556Z,43.07
2022-08-03T12:27:03.193Z,43.92
2022-08-03T12:32:05.852Z,44.33
2022-08-03T12:37:22.301Z,41.66
2022-08-03T12:42:36.986Z,44.26
2022-08-03T12:48:02.195Z,43.06
2022-08-03T12:53:08.016Z,43.50
2022-08-03T12:58:33.818Z,43.50
2022-08-03T13:03:50.394Z,43.62
2022-08-03T13:09:08.459Z,43.97
2022-08-03T13:14:16.723Z,43.12
2022-08-03T13:19:22.746Z,43.16
2022-08-03T13:24:25.329Z,42.76
2022-08-03T13:29:27.850Z,43.00
2022-08-03T13:34:30.395Z,42.05
2022-08-03T13:39:32.933Z,44.08
2022-08-03T13:44:38.724Z,43.14
2022-08-03T13:49:41.159Z,42.39
2022-08-03T13:54:46.185Z,42.33
2022-08-03T13:59:50.842Z,42.26
2022-08-03T14:04:54.733Z,41.06
2022-08-03T14:09:57.223Z,40.65
2022-08-03T14:15:01.519Z,40.69
2022-08-03T14:20:36.669Z,40.23
2022-08-03T14:25:31.006Z,39.89
2022-08-03T14:30:46.191Z,40.79
2022-08-03T14:35:49.352Z,40.85
2022-08-03T14:40:53.180Z,40.93
2022-08-03T14:45:55.628Z,40.67
2022-08-03T14:50:58.295Z,39.22
2022-08-03T14:56:00.923Z,38.84
2022-08-03T15:01:03.651Z,38.73
2022-08-03T15:06:26.113Z,38.94
2022-08-03T15:11:28.652Z,37.88
2022-08-03T15:16:32.089Z,38.05
2022-08-03T15:21:47.351Z,38.22
2022-08-03T15:26:52.351Z,37.02
2022-08-03T15:31:54.862Z,37.62
2022-08-03T15:36:57.295Z,38.04
2022-08-03T15:41:59.837Z,37.30
2022-08-03T15:47:02.330Z,36.76
2022-08-03T15:52:05.847Z,37.13
2022-08-03T15:57:08.351Z,36.37
2022-08-03T16:02:10.840Z,36.43
2022-08-03T16:07:15.854Z,36.71
2022-08-03T16:12:18.478Z,36.69
2022-08-03T16:17:22.444Z,35.99
2022-08-03T16:22:26.153Z,35.96
2022-08-03T16:27:56.822Z,35.97
2022-08-03T16:32:51.315Z,36.01
2022-08-03T16:37:56.234Z,35.59
2022-08-03T16:42:59.390Z,34.92
2022-08-03T16:48:05.901Z,34.38
2022-08-03T16:53:12.798Z,34.28
2022-08-03T16:58:34.223Z,34.68
2022-08-03T17:03:57.070Z,34.36
2022-08-03T17:09:03.640Z,33.48
2022-08-03T17:14:11.841Z,33.82
2022-08-03T17:19:16.061Z,33.91
2022-08-03T17:24:41.069Z,34.12
2022-08-03T17:29:48.574Z,34.37
2022-08-03T17:34:51.178Z,34.14
2022-08-03T17:39:59.472Z,34.28
2022-08-03T17:45:03.795Z,33.89
2022-08-03T17:50:23.993Z,34.04
2022-08-03T17:55:56.942Z,33.90
2022-08-03T18:01:57.446Z,33.63
2022-08-03T18:06:56.220Z,33.48
2022-08-03T18:12:05.035Z,33.34
2022-08-03T18:17:15.633Z,33.38
2022-08-03T18:22:21.883Z,33.10
2022-08-03T18:27:45.458Z,32.87
2022-08-03T18:33:00.623Z,32.55
2022-08-03T18:38:03.992Z,32.40
2022-08-03T18:43:12.848Z,32.32
2022-08-03T18:48:27.395Z,32.25
2022-08-03T18:54:02.471Z,31.95
2022-08-03T18:59:11.608Z,31.71
2022-08-03T19:04:24.303Z,31.42
2022-08-03T19:09:54.622Z,31.29
2022-08-03T19:15:03.697Z,31.22
2022-08-03T19:20:09.161Z,31.15
2022-08-03T19:25:12.240Z,31.06
2022-08-03T19:30:35.838Z,31.08
2022-08-03T19:35:55.384Z,30.92
2022-08-03T19:41:03.768Z,30.88
2022-08-03T19:46:12.533Z,30.75
2022-08-03T19:51:16.810Z,30.67
2022-08-03T19:56:24.197Z,30.55
2022-08-03T20:01:28.214Z,30.42
2022-08-03T20:06:31.555Z,30.30
2022-08-03T20:11:45.039Z,30.23
2022-08-03T20:16:48.164Z,30.22
2022-08-03T20:21:54.711Z,30.11
2022-08-03T20:27:01.410Z,30.09
2022-08-03T20:32:04.623Z,30.10
2022-08-03T20:37:09.529Z,30.08
2022-08-03T20:42:14.852Z,30.12
2022-08-03T20:47:24.390Z,30.24
2022-08-03T20:52:27.729Z,30.29
2022-08-03T20:57:33.057Z,30.14
2022-08-03T21:02:36.097Z,29.97
2022-08-03T21:08:05.088Z,30.02
2022-08-03T21:13:31.713Z,29.97
2022-08-03T21:18:42.262Z,30.03
2022-08-03T21:23:49.639Z,29.93
2022-08-03T21:28:54.534Z,29.93
2022-08-03T21:34:00.151Z,29.81
2022-08-03T21:39:04.973Z,29.87
2022-08-03T21:44:08.479Z,29.84
2022-08-03T21:49:51.855Z,29.78
2022-08-03T21:54:41.227Z,29.70
2022-08-03T21:59:52.032Z,29.85
2022-08-03T22:04:55.256Z,29.87
2022-08-03T22:09:59.876Z,29.85
2022-08-03T22:15:05.194Z,29.87
2022-08-03T22:20:10.323Z,29.80
2022-08-03T22:25:15.404Z,29.66
2022-08-03T22:30:19.364Z,29.49
2022-08-03T22:35:23.984Z,29.24
2022-08-03T22:40:27.873Z,29.09
2022-08-03T22:45:45.801Z,29.17
2022-08-03T22:50:54.246Z,29.09
2022-08-03T22:55:57.344Z,28.79
2022-08-03T23:01:06.693Z,28.77
2022-08-03T23:06:09.634Z,28.89
2022-08-03T23:11:13.126Z,28.80
2022-08-03T23:16:28.897Z,28.47
2022-08-03T23:21:53.327Z,28.09
2022-08-03T23:26:57.238Z,28.05
2022-08-03T23:32:02.231Z,28.24
2022-08-03T23:37:06.579Z,27.96
2022-08-03T23:42:10.996Z,27.64
2022-08-03T23:47:14.199Z,27.34
2022-08-03T23:52:30.190Z,27.20
2022-08-03T23:57:43.260Z,27.20
